Time;durP1;ratioP1;P1;durP2;ratioP2;P2;SDS_P1;SDS_P2;PMS_P1;PMS_P2;Temp;Humidity;BMP_temperature;BMP_pressure;BME280_temperature;BME280_humidity;BME280_pressure;Samples;Min_cycle;Max_cycle;Signal;HPM_P1;HPM_P2
2022/04/08 00:00:21;;;;;;;3.17;0.70;;;8.40;99.90;;;;;;5031315;28;20459;-79
2022/04/08 00:02:49;;;;;;;2.30;0.63;;;8.30;99.90;;;;;;5048315;28;20033;-78
2022/04/08 00:05:14;;;;;;;5.32;0.80;;;8.30;99.90;;;;;;5051104;28;20074;-77
2022/04/08 00:07:40;;;;;;;1.80;0.55;;;8.40;99.90;;;;;;5050851;28;20104;-77
2022/04/08 00:10:06;;;;;;;3.45;1.08;;;8.30;99.90;;;;;;5051207;28;20021;-76
2022/04/08 00:12:32;;;;;;;3.92;0.80;;;8.30;99.90;;;;;;5050778;28;20037;-77
2022/04/08 00:14:58;;;;;;;3.67;0.90;;;8.40;99.80;;;;;;5050902;28;20464;-77
2022/04/08 00:17:24;;;;;;;19.83;2.92;;;8.30;99.80;;;;;;5050577;28;20040;-77
2022/04/08 00:19:50;;;;;;;4.95;0.75;;;8.40;99.80;;;;;;5050637;28;20029;-78
2022/04/08 00:22:18;;;;;;;7.03;0.80;;;8.30;99.60;;;;;;5033752;28;20451;-78
2022/04/08 00:24:43;;;;;;;1.85;0.55;;;8.30;99.60;;;;;;5050470;28;20060;-78
2022/04/08 00:27:09;;;;;;;2.72;0.82;;;8.30;99.40;;;;;;5050487;28;20041;-79
2022/04/08 00:29:35;;;;;;;2.70;0.60;;;8.30;99.30;;;;;;5049487;28;20072;-79
2022/04/08 00:32:01;;;;;;;3.80;0.82;;;8.30;99.40;;;;;;5050621;28;20033;-78
2022/04/08 00:34:27;;;;;;;2.50;0.75;;;8.20;99.40;;;;;;5051058;28;20074;-78
2022/04/08 00:36:54;;;;;;;4.47;0.65;;;8.20;99.30;;;;;;5033039;28;20083;-78
2022/04/08 00:39:20;;;;;;;6.47;1.20;;;8.30;99.20;;;;;;5050484;28;20037;-77
2022/04/08 00:41:46;;;;;;;4.55;1.00;;;8.30;99.10;;;;;;5050448;28;20028;-78
2022/04/08 00:44:11;;;;;;;3.80;0.55;;;8.20;99.20;;;;;;5050461;28;20040;-76
2022/04/08 00:46:38;;;;;;;1.13;0.40;;;8.20;99.20;;;;;;5050815;28;20096;-77
2022/04/08 00:49:04;;;;;;;5.07;0.90;;;8.20;99.20;;;;;;5032652;28;20119;-77
2022/04/08 00:51:31;;;;;;;2.95;0.60;;;8.20;99.20;;;;;;5032637;28;20485;-76
2022/04/08 00:53:58;;;;;;;5.80;1.10;;;8.20;99.20;;;;;;5050617;28;20426;-78
2022/04/08 00:56:24;;;;;;;1.92;0.70;;;8.30;99.20;;;;;;5050209;28;20455;-78
2022/04/08 00:58:50;;;;;;;4.53;0.82;;;8.40;99.20;;;;;;5032395;28;20449;-78
2022/04/08 01:01:16;;;;;;;3.75;0.90;;;8.40;99.60;;;;;;5032768;28;20128;-77
2022/04/08 01:03:42;;;;;;;4.03;0.80;;;8.30;99.90;;;;;;5050165;28;20121;-79
2022/04/08 01:06:13;;;;;;;4.35;0.77;;;8.30;99.90;;;;;;5050314;28;20033;-79
2022/04/08 01:08:40;;;;;;;4.13;0.77;;;8.20;99.90;;;;;;5049076;28;20504;-78
2022/04/08 01:11:11;;;;;;;3.15;0.85;;;8.10;99.90;;;;;;5050054;28;20052;-78
2022/04/08 01:13:37;;;;;;;4.53;1.30;;;8.20;99.90;;;;;;5050612;28;20033;-78
2022/04/08 01:16:17;;;;;;;4.47;1.20;;;8.20;99.90;;;;;;5050029;28;20047;-78
2022/04/08 01:18:42;;;;;;;12.13;1.45;;;8.10;99.90;;;;;;5032366;28;20121;-78
2022/04/08 01:21:11;;;;;;;7.20;1.10;;;8.10;99.90;;;;;;5048966;28;20116;-78
2022/04/08 01:23:36;;;;;;;4.03;1.05;;;8.20;99.90;;;;;;5032550;28;20108;-79
2022/04/08 01:26:13;;;;;;;5.43;1.08;;;8.20;99.90;;;;;;5049923;28;20120;-79
2022/04/08 01:28:38;;;;;;;5.63;0.82;;;8.10;99.90;;;;;;5052171;28;20025;-80
2022/04/08 01:31:12;;;;;;;4.47;1.05;;;8.20;99.90;;;;;;5053663;28;20041;-79
2022/04/08 01:33:37;;;;;;;8.63;0.93;;;8.20;99.90;;;;;;5053679;28;20104;-79
2022/04/08 01:36:03;;;;;;;6.55;1.25;;;8.20;99.90;;;;;;5053291;28;20120;-79
2022/04/08 01:38:29;;;;;;;4.25;0.85;;;8.20;99.90;;;;;;5035944;28;20053;-79
2022/04/08 01:40:54;;;;;;;4.97;0.93;;;8.20;99.90;;;;;;5035689;28;20033;-78
2022/04/08 01:43:20;;;;;;;4.95;0.93;;;8.20;99.90;;;;;;5036303;28;20033;-80
2022/04/08 01:45:45;;;;;;;7.28;1.08;;;8.20;99.90;;;;;;5036058;28;20447;-78
2022/04/08 01:48:11;;;;;;;2.53;0.93;;;8.30;99.90;;;;;;5053213;28;20087;-80
2022/04/08 01:50:36;;;;;;;2.65;0.77;;;8.20;99.90;;;;;;5053602;28;20033;-78
2022/04/08 01:53:02;;;;;;;4.97;1.45;;;8.20;99.90;;;;;;5053358;28;20083;-81
2022/04/08 01:55:28;;;;;;;4.55;0.85;;;8.20;99.90;;;;;;5053725;28;20021;-80
2022/04/08 01:57:53;;;;;;;3.72;0.90;;;8.20;99.80;;;;;;5053355;28;20063;-79
2022/04/08 02:00:19;;;;;;;3.15;0.90;;;8.20;99.70;;;;;;5053453;28;20037;-80
2022/04/08 02:02:45;;;;;;;3.08;0.90;;;8.10;99.60;;;;;;5035420;28;20083;-79
2022/04/08 02:05:11;;;;;;;6.78;2.08;;;8.10;99.60;;;;;;5053212;28;20535;-80
2022/04/08 02:07:37;;;;;;;4.80;1.00;;;8.10;99.40;;;;;;5052519;28;20017;-81
2022/04/08 02:10:04;;;;;;;4.00;0.90;;;8.10;99.30;;;;;;5053054;28;20028;-80
2022/04/08 02:12:30;;;;;;;3.90;1.15;;;8.20;99.20;;;;;;5053021;28;20494;-79
2022/04/08 02:14:56;;;;;;;6.82;1.13;;;8.20;99.00;;;;;;5035505;28;20064;-80
2022/04/08 02:17:25;;;;;;;3.85;0.82;;;8.10;98.70;;;;;;5053056;28;20078;-80
2022/04/08 02:19:51;;;;;;;9.05;1.25;;;8.20;98.80;;;;;;5052795;28;20245;-77
2022/04/08 02:22:16;;;;;;;6.00;1.10;;;8.10;98.80;;;;;;5053304;28;20017;-77
2022/04/08 02:24:42;;;;;;;4.97;1.15;;;8.00;98.70;;;;;;5052776;28;20032;-77
2022/04/08 02:27:08;;;;;;;7.53;1.30;;;8.00;98.60;;;;;;5052885;28;20586;-78
2022/04/08 02:29:34;;;;;;;4.57;1.00;;;8.00;98.50;;;;;;5053065;28;20017;-78
2022/04/08 02:31:59;;;;;;;6.32;1.40;;;7.90;98.70;;;;;;5052747;28;20120;-77
2022/04/08 02:34:25;;;;;;;9.13;1.30;;;7.90;99.00;;;;;;5053186;28;20167;-78
2022/04/08 02:36:51;;;;;;;3.85;1.00;;;7.90;98.70;;;;;;5052581;28;20132;-77
2022/04/08 02:39:17;;;;;;;3.97;0.90;;;7.80;98.60;;;;;;5051467;28;20615;-79
2022/04/08 02:41:43;;;;;;;8.60;1.20;;;7.80;98.70;;;;;;5034453;28;20298;-77
2022/04/08 02:44:11;;;;;;;12.07;1.17;;;7.80;98.50;;;;;;5052328;28;20033;-75
2022/04/08 02:46:36;;;;;;;9.93;1.40;;;7.90;98.60;;;;;;5052727;28;20044;-78
2022/04/08 02:49:03;;;;;;;4.20;1.55;;;7.80;98.60;;;;;;5052288;28;20033;-78
2022/04/08 02:51:28;;;;;;;7.80;1.27;;;7.90;98.70;;;;;;5034496;28;20459;-77
2022/04/08 02:53:54;;;;;;;6.93;1.20;;;7.80;98.70;;;;;;5034506;28;20087;-78
2022/04/08 02:56:20;;;;;;;9.07;1.15;;;7.80;98.80;;;;;;5052188;28;20040;-79
2022/04/08 02:58:48;;;;;;;2.58;1.05;;;7.80;98.90;;;;;;5052143;28;20095;-78
2022/04/08 03:01:17;;;;;;;4.25;0.88;;;7.90;98.90;;;;;;5052344;28;20045;-78
2022/04/08 03:03:42;;;;;;;4.05;0.95;;;7.90;98.90;;;;;;5034591;28;20079;-78
2022/04/08 03:06:11;;;;;;;6.68;0.82;;;7.90;99.00;;;;;;5052070;28;20036;-78
2022/04/08 03:08:37;;;;;;;12.27;1.42;;;7.90;99.10;;;;;;5051998;28;20059;-79
2022/04/08 03:11:02;;;;;;;9.55;1.42;;;7.80;98.90;;;;;;5051682;28;20515;-79
2022/04/08 03:13:28;;;;;;;8.57;1.58;;;7.90;99.00;;;;;;5052380;28;20032;-78
2022/04/08 03:15:53;;;;;;;9.45;2.03;;;7.90;99.00;;;;;;5051721;28;20033;-78
2022/04/08 03:18:19;;;;;;;4.05;1.00;;;7.80;99.10;;;;;;5051853;28;20037;-78
2022/04/08 03:20:45;;;;;;;7.80;1.40;;;7.80;98.90;;;;;;5034112;28;20413;-78
2022/04/08 03:23:10;;;;;;;6.72;0.85;;;7.90;98.80;;;;;;5051590;28;20067;-79
2022/04/08 03:25:36;;;;;;;5.60;1.38;;;8.00;98.80;;;;;;5034423;28;20108;-80
2022/04/08 03:28:01;;;;;;;6.80;1.40;;;7.80;98.80;;;;;;5051864;28;20029;-78
2022/04/08 03:30:27;;;;;;;6.15;1.05;;;7.90;98.60;;;;;;5051828;28;20041;-78
2022/04/08 03:32:54;;;;;;;7.35;0.98;;;7.90;98.40;;;;;;5030514;28;20448;-79
2022/04/08 03:35:20;;;;;;;6.57;1.13;;;7.90;98.40;;;;;;5033677;28;20033;-79
2022/04/08 03:37:46;;;;;;;5.53;1.35;;;7.90;98.40;;;;;;5051428;28;20120;-78
2022/04/08 03:40:11;;;;;;;9.57;1.88;;;8.00;98.40;;;;;;5051832;28;20100;-78
2022/04/08 03:42:37;;;;;;;9.45;1.25;;;8.00;98.40;;;;;;5051401;28;20120;-77
2022/04/08 03:45:04;;;;;;;4.25;1.10;;;7.90;98.50;;;;;;5051418;28;20120;-80
2022/04/08 03:47:30;;;;;;;10.48;1.50;;;7.90;98.40;;;;;;5051076;28;20481;-80
2022/04/08 03:49:57;;;;;;;8.32;1.42;;;7.90;98.40;;;;;;5051032;28;20064;-78
2022/04/08 03:52:23;;;;;;;4.45;0.90;;;7.90;98.30;;;;;;5051007;28;20276;-79
2022/04/08 03:54:48;;;;;;;10.48;1.50;;;7.90;98.50;;;;;;5051070;28;20029;-79
2022/04/08 03:57:14;;;;;;;2.35;0.90;;;7.80;98.80;;;;;;5051220;28;20370;-81
2022/04/08 03:59:43;;;;;;;8.50;1.27;;;7.90;99.00;;;;;;5051117;28;20082;-79
2022/04/08 04:02:09;;;;;;;6.75;0.88;;;7.90;98.80;;;;;;5050703;28;20037;-79
2022/04/08 04:04:34;;;;;;;8.05;1.08;;;7.90;98.90;;;;;;5051660;28;20493;-81
2022/04/08 04:07:03;;;;;;;8.07;1.10;;;8.00;99.10;;;;;;5051182;28;20067;-81
2022/04/08 04:09:30;;;;;;;9.00;1.10;;;7.90;99.20;;;;;;5051171;28;20371;-78
2022/04/08 04:11:55;;;;;;;9.25;1.25;;;7.80;99.80;;;;;;5051133;28;20071;-80
2022/04/08 04:14:21;;;;;;;1.20;0.40;;;7.70;99.90;;;;;;5050869;28;20032;-78
2022/04/08 04:16:46;;;;;;;3.42;0.73;;;7.30;99.50;;;;;;5050774;28;20028;-77
2022/04/08 04:19:12;;;;;;;0.20;0.20;;;6.70;99.70;;;;;;5051128;28;20036;-77
2022/04/08 04:21:37;;;;;;;2.95;0.60;;;6.60;99.90;;;;;;5050624;28;20086;-78
2022/04/08 04:24:03;;;;;;;2.97;0.52;;;6.60;99.90;;;;;;5032849;28;20055;-78
2022/04/08 04:26:29;;;;;;;1.05;0.30;;;6.50;99.90;;;;;;5050660;28;20430;-77
2022/04/08 04:28:54;;;;;;;1.27;0.20;;;6.50;99.90;;;;;;5050675;28;20497;-78
2022/04/08 04:31:20;;;;;;;2.58;0.60;;;6.60;99.90;;;;;;5033434;28;20056;-78
2022/04/08 04:33:45;;;;;;;1.27;0.35;;;6.50;99.90;;;;;;5050567;28;20026;-78
2022/04/08 04:36:15;;;;;;;2.95;0.47;;;6.50;99.90;;;;;;5050543;28;20124;-77
2022/04/08 04:38:40;;;;;;;4.85;0.73;;;6.40;99.90;;;;;;5050505;28;20025;-79
2022/04/08 04:41:17;;;;;;;0.38;0.20;;;6.40;99.90;;;;;;5032726;28;20047;-77
2022/04/08 04:43:43;;;;;;;2.10;0.40;;;6.50;99.90;;;;;;5032781;28;20024;-78
2022/04/08 04:46:11;;;;;;;3.22;0.40;;;6.50;99.90;;;;;;5033333;28;20017;-79
2022/04/08 04:48:37;;;;;;;2.50;0.40;;;6.50;99.90;;;;;;5050359;28;20021;-79
2022/04/08 04:51:03;;;;;;;4.07;0.77;;;6.50;99.90;;;;;;5050198;28;20037;-78
2022/04/08 04:53:28;;;;;;;3.80;0.40;;;6.50;99.90;;;;;;5050324;28;20041;-77
2022/04/08 04:55:56;;;;;;;4.32;0.80;;;6.60;99.90;;;;;;5050170;28;20100;-77
2022/04/08 04:58:22;;;;;;;5.40;0.88;;;6.60;99.50;;;;;;5050897;28;20044;-77
2022/04/08 05:00:48;;;;;;;4.57;0.75;;;6.70;99.50;;;;;;5050284;28;20060;-78
2022/04/08 05:03:13;;;;;;;4.57;1.05;;;6.80;99.10;;;;;;5051677;28;20056;-78
2022/04/08 05:05:40;;;;;;;3.33;1.48;;;6.80;99.10;;;;;;5036775;28;20454;-77
2022/04/08 05:08:07;;;;;;;4.93;0.88;;;6.80;99.20;;;;;;5036565;28;20040;-77
2022/04/08 05:10:32;;;;;;;2.78;0.60;;;6.90;99.00;;;;;;5054727;28;20021;-78
2022/04/08 05:12:59;;;;;;;4.20;0.60;;;7.00;98.90;;;;;;5036522;28;20068;-78
2022/04/08 05:15:26;;;;;;;2.63;0.50;;;7.00;99.00;;;;;;5054339;28;20033;-78
2022/04/08 05:17:53;;;;;;;3.90;0.82;;;7.10;98.80;;;;;;5054188;28;20037;-77
2022/04/08 05:20:18;;;;;;;3.13;0.60;;;7.00;98.60;;;;;;5053920;28;20470;-78
2022/04/08 05:22:44;;;;;;;3.97;0.73;;;7.00;98.40;;;;;;5036352;28;20040;-78
2022/04/08 05:25:10;;;;;;;4.43;1.13;;;7.00;98.20;;;;;;5054504;28;20029;-78
2022/04/08 05:27:42;;;;;;;0.98;0.38;;;7.00;98.30;;;;;;5053905;28;20029;-78
2022/04/08 05:30:13;;;;;;;1.40;0.43;;;7.00;98.20;;;;;;5053983;28;20094;-79
2022/04/08 05:32:40;;;;;;;2.83;0.57;;;6.90;98.00;;;;;;5053793;28;20037;-78
2022/04/08 05:35:06;;;;;;;4.18;0.77;;;7.00;98.10;;;;;;5053888;28;20694;-78
2022/04/08 05:37:36;;;;;;;4.47;0.77;;;6.80;97.80;;;;;;5036577;28;20039;-79
2022/04/08 05:40:02;;;;;;;3.25;0.70;;;6.90;98.10;;;;;;5035933;28;20033;-79
2022/04/08 05:42:28;;;;;;;3.80;0.50;;;6.80;98.10;;;;;;5053545;28;20056;-78
2022/04/08 05:44:54;;;;;;;2.63;0.50;;;6.90;98.20;;;;;;5036032;28;20053;-78
2022/04/08 05:47:19;;;;;;;2.70;0.68;;;6.90;98.20;;;;;;5036012;28;20083;-79
2022/04/08 05:49:45;;;;;;;3.20;1.02;;;7.00;98.30;;;;;;5035804;28;20021;-79
2022/04/08 05:52:10;;;;;;;4.93;0.60;;;7.20;98.30;;;;;;5053838;28;20025;-79
2022/04/08 05:54:36;;;;;;;4.03;0.73;;;7.00;98.70;;;;;;5053540;28;20108;-79
2022/04/08 05:57:01;;;;;;;2.63;0.68;;;7.00;98.70;;;;;;5053618;28;20025;-78
2022/04/08 05:59:28;;;;;;;3.42;1.25;;;7.00;98.70;;;;;;5053488;28;20116;-79
2022/04/08 06:01:54;;;;;;;3.45;0.63;;;7.20;98.60;;;;;;5032453;28;20048;-79
2022/04/08 06:04:20;;;;;;;4.15;1.13;;;7.20;98.40;;;;;;5034018;28;20029;-80
2022/04/08 06:06:46;;;;;;;5.05;0.75;;;7.20;98.30;;;;;;5033812;28;20483;-79
2022/04/08 06:09:12;;;;;;;6.32;0.65;;;7.20;98.40;;;;;;5034979;28;20053;-79
2022/04/08 06:11:38;;;;;;;2.15;0.70;;;7.30;98.10;;;;;;5033398;28;20517;-80
2022/04/08 06:14:03;;;;;;;10.30;1.10;;;7.40;98.00;;;;;;5031472;28;20029;-80
2022/04/08 06:16:29;;;;;;;10.27;0.95;;;7.50;97.70;;;;;;5033573;28;20482;-80
2022/04/08 06:18:55;;;;;;;3.53;0.80;;;7.40;97.50;;;;;;5033080;28;20034;-78
2022/04/08 06:21:21;;;;;;;5.35;0.80;;;7.50;97.30;;;;;;5031905;28;20052;-73
2022/04/08 06:23:47;;;;;;;6.60;1.08;;;7.50;96.80;;;;;;5032539;28;20029;-78
2022/04/08 06:26:16;;;;;;;7.57;1.50;;;7.60;96.90;;;;;;5033350;28;20060;-77
2022/04/08 06:28:41;;;;;;;6.35;0.70;;;7.60;96.70;;;;;;5032972;28;20287;-78
2022/04/08 06:31:13;;;;;;;7.07;1.23;;;7.60;96.50;;;;;;5033294;28;20529;-73
2022/04/08 06:33:39;;;;;;;10.88;1.63;;;7.60;96.30;;;;;;5032721;28;20460;-73
2022/04/08 06:36:14;;;;;;;9.13;1.27;;;7.50;96.40;;;;;;5032770;28;20029;-73
2022/04/08 06:38:40;;;;;;;8.10;0.80;;;7.50;96.50;;;;;;5032685;28;20124;-75
2022/04/08 06:41:15;;;;;;;11.98;1.92;;;7.70;96.60;;;;;;5032719;28;20034;-76
2022/04/08 06:43:41;;;;;;;7.28;1.10;;;7.70;96.70;;;;;;5032753;28;20051;-72
2022/04/08 06:46:15;;;;;;;13.85;1.60;;;7.60;97.00;;;;;;5033174;28;20447;-72
2022/04/08 06:48:41;;;;;;;7.18;1.48;;;7.60;97.10;;;;;;5032692;28;20096;-74
2022/04/08 06:51:12;;;;;;;10.02;1.70;;;7.60;97.30;;;;;;5032573;28;20639;-74
2022/04/08 06:53:38;;;;;;;8.48;1.33;;;7.60;97.10;;;;;;5032691;28;20475;-73
2022/04/08 06:56:13;;;;;;;10.70;1.00;;;7.70;97.40;;;;;;5032510;28;20033;-75
2022/04/08 06:58:39;;;;;;;6.97;1.00;;;7.60;96.90;;;;;;5032833;28;20032;-75
2022/04/08 07:01:13;;;;;;;13.10;1.45;;;7.40;97.30;;;;;;5034462;28;20044;-73
2022/04/08 07:03:39;;;;;;;8.23;1.15;;;7.20;97.50;;;;;;5034514;28;20037;-71
2022/04/08 07:06:05;;;;;;;12.15;1.65;;;7.10;97.70;;;;;;5034374;28;20116;-74
2022/04/08 07:08:30;;;;;;;11.95;1.13;;;7.00;97.90;;;;;;5052081;28;20547;-79
2022/04/08 07:10:57;;;;;;;6.80;1.30;;;7.10;97.80;;;;;;5051972;28;20110;-77
2022/04/08 07:13:22;;;;;;;5.05;1.50;;;7.20;97.80;;;;;;5052443;28;20017;-75
2022/04/08 07:15:49;;;;;;;13.88;1.80;;;7.40;97.90;;;;;;5052540;28;20044;-83
2022/04/08 07:18:15;;;;;;;7.20;1.45;;;7.50;97.90;;;;;;5052404;28;20470;-73
2022/04/08 07:20:41;;;;;;;7.65;2.15;;;7.70;98.10;;;;;;5034656;28;20129;-76
2022/04/08 07:23:06;;;;;;;11.48;1.98;;;7.80;98.00;;;;;;5052309;28;20048;-74
2022/04/08 07:25:32;;;;;;;12.80;2.55;;;7.90;97.60;;;;;;5051760;28;20025;-77
2022/04/08 07:28:00;;;;;;;8.18;1.70;;;8.00;97.40;;;;;;5051806;28;20094;-83
2022/04/08 07:30:27;;;;;;;5.40;1.40;;;8.20;97.50;;;;;;5049634;28;20078;-83
2022/04/08 07:32:54;;;;;;;14.38;2.40;;;8.30;97.00;;;;;;5052024;28;20063;-72
2022/04/08 07:35:25;;;;;;;10.07;1.88;;;8.40;97.30;;;;;;5051874;28;20061;-72
2022/04/08 07:37:52;;;;;;;7.18;1.63;;;8.50;97.00;;;;;;5051825;28;20112;-79
2022/04/08 07:40:19;;;;;;;12.88;1.73;;;8.40;96.40;;;;;;5052140;28;20459;-78
2022/04/08 07:42:44;;;;;;;10.13;1.73;;;8.50;96.00;;;;;;5051562;28;20104;-74
2022/04/08 07:45:11;;;;;;;6.93;1.90;;;8.50;96.20;;;;;;5033800;28;20117;-75
2022/04/08 07:47:43;;;;;;;11.77;1.92;;;8.70;96.90;;;;;;5051305;28;20040;-73
2022/04/08 07:50:12;;;;;;;15.05;2.53;;;8.60;95.80;;;;;;5051371;28;20025;-72
2022/04/08 07:52:41;;;;;;;8.73;1.85;;;8.60;95.80;;;;;;5051717;28;20021;-73
2022/04/08 07:55:08;;;;;;;11.35;1.40;;;8.50;95.80;;;;;;5051388;28;20118;-74
2022/04/08 07:57:34;;;;;;;13.43;2.05;;;8.60;95.70;;;;;;5051154;28;20050;-74
2022/04/08 07:59:59;;;;;;;16.50;2.40;;;8.60;96.20;;;;;;5050896;28;20466;-75
2022/04/08 08:02:30;;;;;;;10.63;2.03;;;8.60;96.40;;;;;;5033370;28;20386;-76
2022/04/08 08:04:56;;;;;;;12.65;1.98;;;8.50;96.50;;;;;;5051311;28;20021;-75
2022/04/08 08:07:21;;;;;;;14.45;2.38;;;8.60;96.60;;;;;;5052125;28;20392;-73
2022/04/08 08:09:47;;;;;;;10.73;2.47;;;8.70;96.80;;;;;;5034039;28;20029;-74
2022/04/08 08:12:13;;;;;;;7.53;1.77;;;8.80;96.20;;;;;;5033401;28;20123;-73
2022/04/08 08:14:38;;;;;;;12.45;1.83;;;8.80;95.30;;;;;;5049826;28;20032;-72
2022/04/08 08:17:04;;;;;;;13.00;2.17;;;8.80;95.20;;;;;;5051095;28;20059;-74
2022/04/08 08:19:30;;;;;;;15.23;2.53;;;8.90;95.00;;;;;;5051671;28;20434;-73
2022/04/08 08:21:56;;;;;;;8.82;1.90;;;9.00;94.80;;;;;;5051360;28;20029;-74
2022/04/08 08:24:22;;;;;;;16.40;1.60;;;8.80;94.50;;;;;;5051403;28;20163;-75
2022/04/08 08:26:48;;;;;;;10.07;1.80;;;8.90;94.00;;;;;;5051248;28;20040;-73
2022/04/08 08:29:13;;;;;;;8.98;1.55;;;8.90;93.50;;;;;;5049885;28;20379;-77
2022/04/08 08:31:39;;;;;;;10.38;2.22;;;9.30;93.40;;;;;;5051169;28;20032;-73
2022/04/08 08:34:04;;;;;;;4.60;1.80;;;9.60;93.50;;;;;;5051095;28;20067;-73
2022/04/08 08:36:30;;;;;;;9.88;1.88;;;9.70;92.60;;;;;;5050643;28;20037;-75
2022/04/08 08:38:55;;;;;;;10.88;1.38;;;9.80;92.40;;;;;;5050949;28;20090;-73
2022/04/08 08:41:24;;;;;;;6.70;1.45;;;10.50;91.60;;;;;;5033305;28;20370;-74
2022/04/08 08:43:50;;;;;;;8.80;1.40;;;10.70;89.80;;;;;;5050558;28;20100;-74
2022/04/08 08:46:17;;;;;;;12.60;1.63;;;11.70;90.10;;;;;;5051926;28;20393;-73
2022/04/08 08:48:44;;;;;;;4.57;1.33;;;12.20;87.30;;;;;;5033246;28;20086;-71
2022/04/08 08:51:11;;;;;;;9.00;1.70;;;12.70;86.50;;;;;;5051051;28;20040;-72
2022/04/08 08:53:36;;;;;;;7.82;1.58;;;13.10;84.50;;;;;;5050790;28;20025;-77
2022/04/08 08:56:08;;;;;;;8.15;2.00;;;13.00;82.80;;;;;;5050643;28;20581;-76
2022/04/08 08:58:34;;;;;;;9.50;1.77;;;13.00;81.40;;;;;;5051237;28;20056;-77
2022/04/08 09:01:00;;;;;;;9.63;1.42;;;12.50;81.80;;;;;;5050133;28;20056;-73
2022/04/08 09:03:29;;;;;;;9.18;1.45;;;11.50;81.50;;;;;;5050694;28;20071;-74
2022/04/08 09:06:06;;;;;;;13.35;2.00;;;11.20;82.40;;;;;;5050539;28;20059;-73
2022/04/08 09:08:36;;;;;;;10.73;1.42;;;11.00;84.80;;;;;;5050516;28;20025;-73
2022/04/08 09:11:08;;;;;;;9.43;2.78;;;10.40;86.60;;;;;;5050641;28;20036;-74
2022/04/08 09:13:46;;;;;;;5.45;1.50;;;10.30;89.00;;;;;;5050723;28;20017;-75
2022/04/08 09:16:12;;;;;;;4.70;1.30;;;10.30;89.90;;;;;;5049223;28;20083;-74
2022/04/08 09:18:41;;;;;;;6.10;1.20;;;10.10;90.40;;;;;;5050381;28;20467;-73
2022/04/08 09:21:07;;;;;;;6.90;1.33;;;10.10;91.00;;;;;;5050421;28;20095;-74
2022/04/08 09:23:34;;;;;;;4.63;1.13;;;9.70;92.20;;;;;;5050310;28;20022;-76
2022/04/08 09:26:19;;;;;;;7.15;1.08;;;9.80;92.20;;;;;;5050535;28;20386;-77
2022/04/08 09:28:45;;;;;;;6.72;1.42;;;9.90;92.50;;;;;;5030818;28;20024;-73
2022/04/08 09:31:21;;;;;;;4.15;1.63;;;9.90;92.80;;;;;;5050790;28;20090;-76
2022/04/08 09:33:52;;;;;;;8.52;1.95;;;9.70;93.40;;;;;;5049384;28;20037;-76
2022/04/08 09:36:32;;;;;;;6.45;1.35;;;9.80;93.60;;;;;;5050426;28;20025;-75
2022/04/08 09:38:59;;;;;;;5.97;1.75;;;9.90;93.90;;;;;;5050818;28;20021;-73
2022/04/08 09:41:46;;;;;;;13.38;2.10;;;9.90;93.60;;;;;;5050547;28;20033;-79
2022/04/08 09:44:12;;;;;;;10.07;2.00;;;10.00;93.10;;;;;;5049368;28;20536;-76
2022/04/08 09:46:39;;;;;;;10.98;2.00;;;10.00;93.10;;;;;;5050965;28;20082;-74
2022/04/08 09:49:06;;;;;;;17.50;3.53;;;9.90;93.80;;;;;;5050518;28;20040;-72
2022/04/08 09:51:40;;;;;;;7.03;2.20;;;9.90;94.60;;;;;;5053872;28;20170;-74
2022/04/08 09:54:09;;;;;;;8.55;1.80;;;9.60;94.60;;;;;;5053708;28;20033;-74
2022/04/08 09:56:36;;;;;;;14.38;2.03;;;9.30;94.90;;;;;;5053804;28;20029;-73
2022/04/08 09:59:08;;;;;;;12.15;1.85;;;9.30;95.50;;;;;;5053629;28;20072;-74
2022/04/08 10:01:35;;;;;;;8.35;2.10;;;9.20;95.70;;;;;;5053915;28;20041;-74
2022/04/08 10:04:03;;;;;;;10.82;1.98;;;9.30;95.80;;;;;;5053571;28;20041;-73
2022/04/08 10:06:30;;;;;;;8.45;1.90;;;9.40;95.70;;;;;;5053356;28;20033;-73
2022/04/08 10:08:57;;;;;;;10.50;2.92;;;9.70;95.50;;;;;;5053441;28;20565;-73
2022/04/08 10:11:50;;;;;;;7.50;1.73;;;10.20;94.20;;;;;;5053008;28;20037;-71
2022/04/08 10:14:28;;;;;;;11.02;2.05;;;10.60;93.20;;;;;;5053082;28;20037;-71
2022/04/08 10:16:55;;;;;;;4.75;1.70;;;10.60;92.80;;;;;;5052943;28;20459;-74
2022/04/08 10:19:24;;;;;;;4.72;1.67;;;10.60;92.90;;;;;;5053570;28;20121;-73
2022/04/08 10:21:55;;;;;;;8.27;1.73;;;10.40;92.50;;;;;;5052997;28;20029;-73
2022/04/08 10:24:23;;;;;;;9.23;1.60;;;10.00;92.70;;;;;;5052955;28;20124;-72
2022/04/08 10:27:08;;;;;;;5.18;1.50;;;10.00;93.00;;;;;;5052786;28;20462;-73
2022/04/08 10:29:34;;;;;;;4.70;2.08;;;9.80;92.80;;;;;;5052765;28;20112;-75
2022/04/08 10:32:11;;;;;;;7.53;1.70;;;9.80;93.00;;;;;;5052566;28;20052;-73
2022/04/08 10:34:37;;;;;;;11.98;1.80;;;9.70;93.20;;;;;;5053218;28;20032;-73
2022/04/08 10:37:15;;;;;;;6.43;1.40;;;9.50;93.00;;;;;;5052809;28;20102;-74
2022/04/08 10:39:42;;;;;;;6.47;1.58;;;9.20;93.20;;;;;;5052891;28;20040;-76
2022/04/08 10:42:20;;;;;;;5.47;1.73;;;9.20;93.50;;;;;;5052647;28;20033;-76
2022/04/08 10:44:46;;;;;;;3.63;1.77;;;8.90;93.60;;;;;;5051417;28;20033;-80
2022/04/08 10:47:16;;;;;;;7.50;2.30;;;9.10;93.90;;;;;;5052638;28;20120;-77
2022/04/08 10:50:01;;;;;;;5.40;1.92;;;9.10;93.30;;;;;;5051330;28;20055;-82
2022/04/08 10:52:28;;;;;;;5.78;1.58;;;9.40;94.10;;;;;;5051770;28;20033;-75
2022/04/08 10:55:11;;;;;;;6.75;1.48;;;9.70;93.90;;;;;;5053009;28;20408;-71
2022/04/08 10:57:42;;;;;;;9.60;2.28;;;10.30;92.70;;;;;;5052693;28;20643;-75
2022/04/08 11:00:11;;;;;;;7.53;1.92;;;10.90;92.10;;;;;;5051662;28;20116;-73
2022/04/08 11:02:37;;;;;;;;;;;11.60;91.00;;;;;;5051845;28;20147;-74
2022/04/08 11:05:07;;;;;;;7.85;1.70;;;12.20;90.40;;;;;;5051179;28;20003;-74
2022/04/08 11:07:33;;;;;;;5.93;1.83;;;12.50;89.70;;;;;;5051634;28;20021;-71
2022/04/08 11:09:59;;;;;;;9.20;1.55;;;12.40;89.20;;;;;;5052345;28;20492;-72
2022/04/08 11:12:25;;;;;;;9.73;1.73;;;12.20;87.30;;;;;;5051016;28;20651;-73
2022/04/08 11:14:58;;;;;;;6.35;1.95;;;12.00;87.80;;;;;;5051817;28;20025;-74
2022/04/08 11:17:34;;;;;;;7.30;1.60;;;11.60;88.80;;;;;;5052065;28;20108;-72
2022/04/08 11:19:59;;;;;;;12.55;5.15;;;11.40;90.10;;;;;;5051756;28;20028;-74
2022/04/08 11:22:25;;;;;;;12.35;2.20;;;11.60;90.00;;;;;;5051122;28;20079;-73
2022/04/08 11:24:56;;;;;;;4.60;1.58;;;11.30;89.50;;;;;;5051762;28;20044;-75
2022/04/08 11:27:21;;;;;;;9.52;2.80;;;11.20;89.10;;;;;;5051684;28;20119;-74
2022/04/08 11:29:47;;;;;;;12.45;2.00;;;11.10;90.00;;;;;;5051853;28;20124;-75
2022/04/08 11:32:13;;;;;;;6.47;1.90;;;11.00;90.20;;;;;;5051189;28;20041;-72
2022/04/08 11:34:39;;;;;;;11.18;2.10;;;10.90;90.40;;;;;;5052781;28;20040;-74
2022/04/08 11:37:05;;;;;;;7.05;2.20;;;10.80;90.60;;;;;;5050721;28;20036;-74
2022/04/08 11:39:31;;;;;;;6.45;1.67;;;10.80;90.10;;;;;;5051686;28;20060;-74
2022/04/08 11:41:58;;;;;;;6.22;1.92;;;10.80;90.10;;;;;;5051413;28;20029;-75
2022/04/08 11:44:24;;;;;;;7.25;1.83;;;10.70;89.40;;;;;;5051514;28;20043;-73
2022/04/08 11:46:50;;;;;;;5.35;1.67;;;10.60;88.90;;;;;;5051262;28;20433;-73
2022/04/08 11:49:18;;;;;;;11.32;1.58;;;10.70;88.50;;;;;;5051859;28;20029;-77
2022/04/08 11:51:45;;;;;;;7.97;1.80;;;10.70;88.30;;;;;;5051648;28;20347;-74
2022/04/08 11:54:11;;;;;;;5.28;1.85;;;10.70;87.10;;;;;;5051693;28;20025;-74
2022/04/08 11:56:37;;;;;;;7.65;1.27;;;10.60;86.30;;;;;;5051413;28;20044;-76
2022/04/08 11:59:08;;;;;;;11.88;1.60;;;10.40;86.50;;;;;;5050287;28;20431;-75
2022/04/08 12:01:40;;;;;;;9.90;1.45;;;10.40;85.40;;;;;;5051744;28;20110;-74
2022/04/08 12:04:08;;;;;;;5.20;1.33;;;10.50;85.20;;;;;;5050838;28;20041;-77
2022/04/08 12:06:47;;;;;;;5.28;1.27;;;10.60;84.70;;;;;;5051700;28;20063;-77
2022/04/08 12:09:15;;;;;;;8.88;1.48;;;10.70;83.80;;;;;;5051288;28;20044;-73
2022/04/08 12:11:42;;;;;;;6.95;1.45;;;10.70;82.80;;;;;;5051038;28;20048;-75
2022/04/08 12:14:09;;;;;;;8.57;1.48;;;10.80;82.60;;;;;;5033758;28;20078;-78
2022/04/08 12:16:37;;;;;;;10.40;1.67;;;10.90;82.60;;;;;;5034087;28;20371;-77
2022/04/08 12:19:03;;;;;;;6.03;1.77;;;11.10;82.20;;;;;;5051632;28;20053;-75
2022/04/08 12:21:30;;;;;;;6.32;1.42;;;11.00;81.00;;;;;;5051390;28;20470;-72
2022/04/08 12:23:59;;;;;;;9.13;1.88;;;10.90;79.40;;;;;;5033965;28;20057;-77
2022/04/08 12:26:30;;;;;;;7.82;1.48;;;11.10;80.70;;;;;;5051762;28;20040;-76
2022/04/08 12:29:10;;;;;;;8.32;1.33;;;11.30;80.50;;;;;;5051157;28;20029;-74
2022/04/08 12:31:47;;;;;;;4.85;1.10;;;11.50;79.60;;;;;;5051178;28;20029;-75
2022/04/08 12:34:14;;;;;;;7.78;1.88;;;11.50;78.70;;;;;;5049574;28;20033;-77
2022/04/08 12:36:44;;;;;;;4.40;1.60;;;11.40;77.60;;;;;;5050530;28;20029;-77
2022/04/08 12:39:11;;;;;;;4.40;1.10;;;11.50;78.80;;;;;;5050579;28;20029;-75
2022/04/08 12:41:40;;;;;;;7.70;1.48;;;11.30;79.00;;;;;;5050439;28;20474;-74
2022/04/08 12:44:07;;;;;;;5.95;1.60;;;11.30;78.80;;;;;;5050149;28;20135;-74
2022/04/08 12:46:32;;;;;;;6.50;1.35;;;11.30;78.70;;;;;;5050871;28;20025;-72
2022/04/08 12:48:58;;;;;;;7.28;1.50;;;11.20;79.00;;;;;;5050504;28;20486;-72
2022/04/08 12:51:24;;;;;;;6.05;1.92;;;11.30;79.40;;;;;;5050198;28;20113;-72
2022/04/08 12:53:49;;;;;;;4.82;1.48;;;11.40;79.50;;;;;;5050844;28;20455;-80